Time;durP1;ratioP1;P1;durP2;ratioP2;P2;SDS_P1;SDS_P2;PMS_P1;PMS_P2;Temp;Humidity;BMP_temperature;BMP_pressure;BME280_temperature;BME280_humidity;BME280_pressure;Samples;Min_cycle;Max_cycle;Signal;HPM_P1;HPM_P2
2023/10/11 00:01:46;;;;;;;1.63;0.50;;;;;;;10.80;82.91;99898.63;5050063;28;20052;-75
2023/10/11 00:04:23;;;;;;;4.25;0.60;;;;;;;10.82;82.46;99914.25;5049092;28;20132;-75
2023/10/11 00:06:50;;;;;;;1.58;0.50;;;;;;;10.83;82.33;99901.13;5053972;28;20472;-74
2023/10/11 00:09:17;;;;;;;3.90;0.70;;;;;;;10.83;82.77;99903.75;5047344;28;20513;-75
2023/10/11 00:11:45;;;;;;;0.95;0.45;;;;;;;10.86;82.52;99908.84;5046483;28;20068;-75
2023/10/11 00:14:13;;;;;;;4.78;0.60;;;;;;;10.88;82.02;99896.59;5050526;28;20041;-75
2023/10/11 00:16:41;;;;;;;2.13;0.70;;;;;;;10.89;82.40;99882.63;5046966;28;20107;-75
2023/10/11 00:19:09;;;;;;;0.80;0.50;;;;;;;10.91;82.43;99872.97;5048645;28;20132;-76
2023/10/11 00:21:40;;;;;;;3.50;0.50;;;;;;;10.93;82.24;99872.91;5047329;28;20037;-75
2023/10/11 00:24:08;;;;;;;2.35;0.57;;;;;;;10.93;82.36;99859.84;5055775;28;20048;-75
2023/10/11 00:26:37;;;;;;;2.35;0.52;;;;;;;10.90;82.42;99842.53;5050855;28;20056;-75
2023/10/11 00:29:05;;;;;;;0.93;0.63;;;;;;;10.93;82.50;99850.28;5055538;28;20037;-83
2023/10/11 00:31:32;;;;;;;3.20;0.70;;;;;;;10.97;82.56;99833.56;5055661;28;20045;-82
2023/10/11 00:34:03;;;;;;;2.67;0.52;;;;;;;10.96;82.11;99815.34;5057653;28;20060;-84
2023/10/11 00:36:31;;;;;;;4.45;0.60;;;;;;;11.00;82.67;99817.78;5057603;28;20068;-80
2023/10/11 00:38:58;;;;;;;5.18;0.98;;;;;;;11.01;82.46;99816.00;5061784;28;20599;-82
2023/10/11 00:41:30;;;;;;;3.08;0.90;;;;;;;11.02;82.64;99810.75;5054625;28;20076;-79
2023/10/11 00:43:58;;;;;;;1.80;0.98;;;;;;;11.05;82.75;99785.44;5056705;28;20606;-85
2023/10/11 00:46:27;;;;;;;1.63;1.05;;;;;;;11.01;82.78;99782.94;5061489;28;20044;-83
2023/10/11 00:48:59;;;;;;;2.03;0.70;;;;;;;11.05;82.87;99785.44;5065539;28;20048;-88
2023/10/11 00:51:30;;;;;;;3.10;0.82;;;;;;;11.08;82.77;99791.38;5063711;28;20060;-84
2023/10/11 00:53:59;;;;;;;1.30;0.80;;;;;;;11.09;82.90;99766.09;5062213;28;20056;-87
2023/10/11 00:56:31;;;;;;;2.95;0.90;;;;;;;11.12;82.77;99758.13;5059387;28;20041;-86
2023/10/11 00:58:58;;;;;;;5.90;0.93;;;;;;;11.12;83.07;99747.69;5058489;28;20044;-87
2023/10/11 01:01:25;;;;;;;3.20;0.80;;;;;;;11.12;82.57;99747.69;5066609;28;20060;-86
2023/10/11 01:03:54;;;;;;;2.67;0.80;;;;;;;11.14;82.87;99727.56;5064773;28;20072;-86
2023/10/11 01:06:25;;;;;;;3.83;0.90;;;;;;;11.08;82.66;99709.53;5061095;28;20067;-87
2023/10/11 01:08:52;;;;;;;2.45;1.13;;;;;;;11.17;82.98;99730.06;5065695;28;20078;-86
2023/10/11 01:11:21;;;;;;;4.63;1.05;;;;;;;11.17;83.08;99727.47;5064159;28;20048;-87
2023/10/11 01:13:51;;;;;;;2.65;1.40;;;;;;;11.18;83.50;99722.16;5062534;28;20045;-86
2023/10/11 01:16:20;;;;;;;3.92;1.35;;;;;;;11.20;83.62;99722.13;5061263;28;20110;-87
2023/10/11 01:18:47;;;;;;;1.20;1.00;;;;;;;11.21;83.24;99715.97;5058765;28;20123;-84
2023/10/11 01:21:15;;;;;;;2.72;1.15;;;;;;;11.23;83.33;99712.38;5064401;28;20045;-87
2023/10/11 01:23:42;;;;;;;7.13;1.60;;;;;;;11.24;83.51;99708.00;5066361;28;20047;-84
2023/10/11 01:26:09;;;;;;;6.07;1.55;;;;;;;11.24;83.40;99702.78;5066981;28;20143;-86
2023/10/11 01:28:37;;;;;;;2.33;1.13;;;;;;;11.28;84.24;99703.53;5063253;28;20084;-87
2023/10/11 01:31:09;;;;;;;2.88;1.08;;;;;;;11.26;83.81;99690.50;5064967;28;21059;-86
2023/10/11 01:33:37;;;;;;;3.60;1.17;;;;;;;11.28;83.96;99688.69;5063378;28;20045;-88
2023/10/11 01:36:06;;;;;;;2.85;0.80;;;;;;;11.31;83.87;99683.34;5060310;28;20082;-86
2023/10/11 01:38:45;;;;;;;4.25;1.30;;;;;;;11.33;84.03;99707.69;5059724;28;20063;-74
2023/10/11 01:41:14;;;;;;;1.88;1.10;;;;;;;11.35;84.27;99703.22;5051696;28;20044;-75
2023/10/11 01:43:42;;;;;;;5.70;1.00;;;;;;;11.37;84.41;99692.72;5056369;28;20060;-73
2023/10/11 01:46:08;;;;;;;4.80;0.63;;;;;;;11.39;84.22;99696.97;5052159;28;20051;-74
2023/10/11 01:48:35;;;;;;;5.13;1.00;;;;;;;11.40;84.39;99688.22;5051315;28;20059;-74
2023/10/11 01:51:04;;;;;;;2.67;1.10;;;;;;;11.41;84.29;99683.81;5045169;28;20048;-74
2023/10/11 01:53:31;;;;;;;2.67;1.00;;;;;;;11.43;84.19;99685.47;5055227;28;20060;-73
2023/10/11 01:56:00;;;;;;;2.55;1.50;;;;;;;11.47;84.50;99673.16;5057772;28;20515;-74
2023/10/11 01:58:27;;;;;;;6.32;1.48;;;;;;;11.46;84.46;99672.28;5055310;28;20044;-73
2023/10/11 02:00:53;;;;;;;3.08;1.40;;;;;;;11.51;84.84;99666.88;5053488;28;20055;-73
2023/10/11 02:03:24;;;;;;;3.53;1.30;;;;;;;11.54;84.54;99673.75;5051265;28;20948;-74
2023/10/11 02:05:51;;;;;;;4.60;1.50;;;;;;;11.55;84.43;99670.22;5055245;28;20044;-73
2023/10/11 02:08:18;;;;;;;4.72;1.23;;;;;;;11.52;84.45;99657.25;5052111;28;20055;-73
2023/10/11 02:10:45;;;;;;;4.78;2.40;;;;;;;11.60;84.42;99647.34;5054890;28;20049;-73
2023/10/11 02:13:15;;;;;;;2.97;1.80;;;;;;;11.55;84.52;99628.34;5051713;28;20070;-74
2023/10/11 02:15:46;;;;;;;4.03;0.90;;;;;;;11.64;84.70;99644.53;5052227;28;20102;-73
2023/10/11 02:18:13;;;;;;;6.35;1.58;;;;;;;11.50;84.79;99602.41;5054888;28;20101;-74
2023/10/11 02:20:45;;;;;;;2.50;0.88;;;;;;;11.69;84.73;99620.78;5050087;28;20037;-74
2023/10/11 02:23:12;;;;;;;11.57;2.95;;;;;;;11.70;84.62;99596.34;5051905;28;20041;-73
2023/10/11 02:25:41;;;;;;;3.72;1.35;;;;;;;11.68;84.75;99593.78;5054316;28;20045;-74
2023/10/11 02:28:09;;;;;;;4.30;1.83;;;;;;;11.75;84.64;99586.53;5055390;28;20045;-74
2023/10/11 02:30:41;;;;;;;3.33;1.35;;;;;;;11.71;84.50;99572.72;5051842;28;20094;-73
2023/10/11 02:33:11;;;;;;;4.85;1.75;;;;;;;11.68;84.74;99554.56;5052509;28;20052;-73
2023/10/11 02:35:51;;;;;;;5.30;1.50;;;;;;;11.77;84.57;99570.78;5056847;28;20080;-74
2023/10/11 02:38:23;;;;;;;6.57;1.92;;;;;;;11.80;84.48;99555.78;5052893;28;20052;-74
2023/10/11 02:40:55;;;;;;;7.13;2.00;;;;;;;11.81;84.45;99554.91;5053416;28;20061;-73
2023/10/11 02:43:25;;;;;;;7.10;1.98;;;;;;;11.85;84.56;99553.88;5051791;28;20064;-75
2023/10/11 02:45:53;;;;;;;4.10;1.15;;;;;;;11.86;84.49;99539.84;5043991;28;20059;-74
2023/10/11 02:48:20;;;;;;;3.42;1.70;;;;;;;11.87;84.15;99541.56;5054194;28;20052;-75
2023/10/11 02:50:48;;;;;;;8.85;1.80;;;;;;;11.89;84.41;99537.09;5048650;28;20143;-73
2023/10/11 02:53:22;;;;;;;6.10;2.38;;;;;;;11.92;84.48;99544.84;5051340;28;20087;-72
2023/10/11 02:55:57;;;;;;;4.97;1.77;;;;;;;11.92;84.55;99539.63;5052989;28;20137;-74
2023/10/11 02:58:25;;;;;;;;;;;;;;;11.95;83.75;99520.28;5055187;28;20044;-73
2023/10/11 03:00:58;;;;;;;4.10;1.60;;;;;;;11.96;84.22;99516.78;5052230;28;20346;-74
2023/10/11 03:03:27;;;;;;;9.75;1.65;;;;;;;11.97;84.22;99512.38;5054126;28;20065;-73
2023/10/11 03:05:55;;;;;;;11.85;2.40;;;;;;;11.98;84.25;99503.59;5055721;28;20052;-73
2023/10/11 03:08:26;;;;;;;10.48;2.70;;;;;;;12.00;84.34;99507.00;5053471;28;20155;-74
2023/10/11 03:10:57;;;;;;;9.13;2.13;;;;;;;12.01;84.30;99495.59;5054361;28;20480;-75
2023/10/11 03:13:29;;;;;;;4.53;1.88;;;;;;;12.00;84.28;99486.06;5054857;28;20220;-74
2023/10/11 03:15:58;;;;;;;6.47;1.88;;;;;;;12.02;84.33;99482.47;5049777;28;20059;-81
2023/10/11 03:18:26;;;;;;;6.57;2.40;;;;;;;11.95;84.64;99467.09;5052996;28;20048;-75
2023/10/11 03:21:07;;;;;;;13.07;2.17;;;;;;;12.05;84.63;99456.16;5052065;28;20436;-74
2023/10/11 03:23:37;;;;;;;8.10;2.45;;;;;;;12.07;84.60;99458.72;5055826;28;20429;-74
2023/10/11 03:26:17;;;;;;;7.70;2.05;;;;;;;12.08;84.69;99461.25;5050545;28;20468;-74
2023/10/11 03:28:56;;;;;;;8.02;2.55;;;;;;;12.10;84.72;99453.34;5050970;28;20524;-75
2023/10/11 03:31:27;;;;;;;8.45;2.40;;;;;;;12.10;84.68;99458.56;5052106;28;20171;-76
2023/10/11 03:33:54;;;;;;;17.88;2.63;;;;;;;12.12;84.93;99436.66;5049736;28;20088;-75
2023/10/11 03:36:28;;;;;;;16.83;2.58;;;;;;;12.09;84.76;99430.69;5055463;28;20147;-74
2023/10/11 03:38:57;;;;;;;9.40;2.72;;;;;;;12.15;84.82;99430.38;5048966;28;20528;-75
2023/10/11 03:41:29;;;;;;;8.55;1.95;;;;;;;12.18;85.16;99414.56;5052991;28;20420;-75
2023/10/11 03:44:02;;;;;;;8.20;3.78;;;;;;;12.19;85.24;99418.88;5054226;28;20048;-76
2023/10/11 03:46:34;;;;;;;9.32;2.83;;;;;;;12.21;85.26;99429.25;5054191;28;20054;-76
2023/10/11 03:49:35;;;;;;;8.38;3.00;;;;;;;12.21;85.13;99426.63;5052220;28;21481;-75
2023/10/11 03:52:01;;;;;;;12.23;3.22;;;;;;;12.25;85.35;99409.88;5053267;28;20045;-75
2023/10/11 03:54:29;;;;;;;8.65;3.33;;;;;;;12.27;85.39;99403.66;5051225;28;20059;-74
2023/10/11 03:56:57;;;;;;;13.18;4.07;;;;;;;12.30;85.70;99390.41;5055582;28;20105;-75
2023/10/11 03:59:26;;;;;;;13.98;3.35;;;;;;;12.32;85.44;99393.81;5047222;28;20057;-74
2023/10/11 04:01:54;;;;;;;8.63;3.90;;;;;;;12.34;85.77;99402.44;5052230;28;20462;-75
2023/10/11 04:04:22;;;;;;;11.40;3.38;;;;;;;12.37;85.89;99394.41;5041114;28;20041;-74
2023/10/11 04:06:51;;;;;;;12.23;3.80;;;;;;;12.38;85.79;99383.03;5058436;28;20072;-75
2023/10/11 04:09:31;;;;;;;9.02;3.47;;;;;;;12.42;85.71;99385.50;5050346;28;20107;-74
2023/10/11 04:12:00;;;;;;;10.32;3.63;;;;;;;12.45;85.79;99399.31;5049021;28;20626;-74
2023/10/11 04:14:39;;;;;;;8.57;3.53;;;;;;;12.46;85.72;99390.50;5049929;28;20114;-75
2023/10/11 04:17:10;;;;;;;9.98;3.45;;;;;;;12.49;85.67;99371.19;5052434;28;20060;-74
2023/10/11 04:19:40;;;;;;;10.55;3.53;;;;;;;12.51;85.70;99364.09;5060175;28;20551;-84
2023/10/11 04:22:16;;;;;;;15.40;4.68;;;;;;;12.53;85.95;99365.72;5063921;28;20040;-83
2023/10/11 04:24:44;;;;;;;9.40;3.40;;;;;;;12.56;85.94;99369.97;5061894;28;20052;-86
2023/10/11 04:30:23;;;;;;;8.55;4.22;;;;;;;12.61;85.87;99365.38;4984703;28;20098;-84
2023/10/11 04:32:56;;;;;;;10.45;4.13;;;;;;;12.62;86.03;99361.81;5032537;28;20063;-84
2023/10/11 04:35:25;;;;;;;12.25;3.97;;;;;;;12.64;86.01;99351.28;5055259;28;20317;-86
2023/10/11 04:38:02;;;;;;;8.25;4.13;;;;;;;12.67;85.96;99354.56;5060672;28;20087;-89
2023/10/11 04:40:49;;;;;;;10.80;4.20;;;;;;;12.68;86.21;99335.31;5042364;28;20076;-87
2023/10/11 04:43:24;;;;;;;13.43;4.78;;;;;;;12.70;86.18;99338.72;5064021;28;20087;-85
2023/10/11 04:45:53;;;;;;;9.88;4.82;;;;;;;12.73;86.21;99322.00;5059830;28;20494;-84
2023/10/11 04:48:30;;;;;;;12.32;4.90;;;;;;;12.75;86.50;99321.00;5059701;28;20080;-85
2023/10/11 04:51:04;;;;;;;11.90;4.05;;;;;;;12.77;86.44;99313.03;5058118;28;20061;-86
2023/10/11 04:53:35;;;;;;;11.48;4.63;;;;;;;12.73;86.57;99322.81;5058594;28;20059;-84
2023/10/11 04:56:51;;;;;;;12.43;4.88;;;;;;;12.81;86.77;99315.44;5062074;28;20047;-85
2023/10/11 04:58:52;;;;;;;17.40;5.05;;;;;;;12.83;86.49;99305.72;5057828;28;20053;-81
2023/10/11 05:01:22;;;;;;;16.00;4.40;;;;;;;12.85;86.32;99325.75;5060143;28;20048;-85
2023/10/11 05:03:59;;;;;;;11.70;4.53;;;;;;;12.87;86.22;99316.03;5053917;28;20060;-87
2023/10/11 05:06:31;;;;;;;11.82;5.68;;;;;;;12.84;86.57;99303.94;5059558;28;20103;-89
2023/10/11 05:09:12;;;;;;;11.73;4.70;;;;;;;12.89;86.49;99304.53;5048039;28;20143;-82
2023/10/11 05:11:43;;;;;;;10.30;4.18;;;;;;;12.91;86.32;99309.72;5054622;28;20121;-82
2023/10/11 05:14:30;;;;;;;12.48;4.80;;;;;;;12.89;86.54;99293.22;5055516;28;20106;-81
2023/10/11 05:17:16;;;;;;;13.85;5.85;;;;;;;12.94;86.42;99296.44;5054921;28;20061;-91
2023/10/11 05:19:55;;;;;;;12.68;3.70;;;;;;;12.93;86.11;99300.00;5056794;28;20049;-83
2023/10/11 05:22:29;;;;;;;9.45;4.00;;;;;;;12.96;86.23;99291.97;5058517;28;20581;-88
2023/10/11 05:27:47;;;;;;;10.70;4.45;;;;;;;12.95;86.11;99283.28;5058124;28;20059;-81
2023/10/11 05:30:26;;;;;;;11.88;4.07;;;;;;;12.98;85.94;99280.50;5062380;28;20124;-80
2023/10/11 05:32:58;;;;;;;7.43;3.75;;;;;;;13.00;85.91;99285.63;5056740;28;20045;-80
2023/10/11 05:51:56;;;;;;;15.00;4.35;;;;;;;13.04;85.64;99263.59;5054343;28;20047;-74
2023/10/11 05:54:33;;;;;;;12.50;3.83;;;;;;;13.03;85.48;99257.50;5053662;28;20472;-74
2023/10/11 05:57:03;;;;;;;9.55;3.95;;;;;;;13.05;85.47;99260.03;5052665;28;20056;-75
2023/10/11 05:59:32;;;;;;;8.95;3.83;;;;;;;13.05;85.51;99252.16;5052253;28;20045;-73
2023/10/11 06:01:59;;;;;;;10.15;4.45;;;;;;;13.05;85.66;99263.50;5051114;28;20049;-74
2023/10/11 06:04:26;;;;;;;13.13;4.60;;;;;;;13.07;85.66;99252.94;5053320;28;20075;-74
2023/10/11 06:06:58;;;;;;;17.80;5.15;;;;;;;13.08;85.66;99240.69;5056920;28;20049;-74
2023/10/11 06:09:26;;;;;;;14.52;5.25;;;;;;;13.05;85.95;99239.06;5052942;28;20041;-74
2023/10/11 06:11:53;;;;;;;15.65;5.43;;;;;;;13.08;85.67;99236.28;5051618;28;20052;-74
2023/10/11 06:14:21;;;;;;;7.57;5.22;;;;;;;13.09;85.96;99227.50;5053549;28;20041;-74
2023/10/11 06:16:57;;;;;;;14.63;5.90;;;;;;;13.12;85.95;99237.81;5051148;28;20494;-73
2023/10/11 06:19:26;;;;;;;14.27;5.47;;;;;;;13.12;85.99;99224.72;5050713;28;20083;-73
2023/10/11 06:21:58;;;;;;;16.42;5.50;;;;;;;13.15;86.07;99227.16;5055186;28;20163;-74
2023/10/11 06:24:25;;;;;;;15.13;5.85;;;;;;;13.17;85.98;99227.91;5049809;28;20076;-74
2023/10/11 06:26:56;;;;;;;21.52;5.50;;;;;;;13.17;85.87;99222.66;5051770;28;20063;-74
2023/10/11 06:29:29;;;;;;;10.18;5.43;;;;;;;13.19;85.92;99212.94;5054037;28;20040;-76
2023/10/11 06:31:55;;;;;;;11.27;5.25;;;;;;;13.20;85.76;99208.56;5055889;28;20166;-75
2023/10/11 06:34:26;;;;;;;12.18;5.70;;;;;;;13.18;85.78;99202.56;5049648;28;20092;-76
2023/10/11 06:36:55;;;;;;;16.58;5.20;;;;;;;13.24;85.77;99205.69;5049298;28;20044;-74
2023/10/11 06:42:24;;;;;;;18.38;5.25;;;;;;;13.26;85.43;99208.25;4984369;28;20069;-75
2023/10/11 06:44:51;;;;;;;11.50;5.00;;;;;;;13.23;85.47;99198.75;5037445;28;20047;-75
2023/10/11 06:47:19;;;;;;;15.57;6.88;;;;;;;13.29;85.56;99192.38;5052758;28;20048;-75
2023/10/11 06:49:53;;;;;;;11.43;6.07;;;;;;;13.28;85.69;99194.13;5051100;28;20049;-75
2023/10/11 06:52:26;;;;;;;20.73;6.68;;;;;;;13.33;85.64;99193.03;5053938;28;20051;-75
2023/10/11 06:57:52;;;;;;;12.65;6.38;;;;;;;13.35;85.90;99192.03;5127332;27;20139;-80
2023/10/11 07:00:23;;;;;;;13.25;5.60;;;;;;;13.37;85.65;99186.69;5124365;28;20071;-81
2023/10/11 07:03:06;;;;;;;13.38;6.18;;;;;;;13.38;85.67;99185.78;5122014;28;20119;-79
2023/10/11 07:05:36;;;;;;;12.23;7.05;;;;;;;13.40;85.36;99176.03;5120766;28;20043;-81
2023/10/11 07:08:05;;;;;;;13.57;6.13;;;;;;;13.39;85.39;99167.31;5124210;28;20048;-84
2023/10/11 07:10:32;;;;;;;8.35;5.40;;;;;;;13.40;85.54;99157.66;5120865;28;20049;-80
2023/10/11 07:13:06;;;;;;;14.45;6.65;;;;;;;13.43;85.50;99167.97;5124250;28;20051;-81
2023/10/11 07:15:41;;;;;;;22.85;8.07;;;;;;;13.46;85.53;99159.94;5121652;28;20100;-83
2023/10/11 07:18:10;;;;;;;13.85;6.72;;;;;;;13.47;85.28;99161.66;5123189;28;20054;-81
2023/10/11 07:20:49;;;;;;;16.70;6.72;;;;;;;13.44;85.20;99160.03;5121916;28;20047;-81
2023/10/11 07:23:20;;;;;;;17.27;6.70;;;;;;;13.48;85.27;99158.91;5125094;28;20054;-79
2023/10/11 07:25:49;;;;;;;21.83;6.18;;;;;;;13.52;85.16;99148.25;5120449;28;20040;-80
2023/10/11 07:28:35;;;;;;;16.33;6.50;;;;;;;13.50;85.11;99145.72;5122188;28;20563;-80
2023/10/11 07:31:03;;;;;;;13.80;6.13;;;;;;;13.53;84.98;99123.72;5121912;28;20070;-81
2023/10/11 07:33:36;;;;;;;15.75;7.82;;;;;;;13.54;85.02;99133.28;5119880;28;20039;-81
2023/10/11 07:36:04;;;;;;;21.17;6.63;;;;;;;13.56;85.03;99128.78;5117607;28;20061;-80
2023/10/11 07:38:34;;;;;;;19.55;7.70;;;;;;;13.60;84.95;99117.19;5101032;28;20044;-74
2023/10/11 07:41:05;;;;;;;20.10;7.90;;;;;;;13.61;85.00;99124.13;5086188;28;20504;-75
2023/10/11 07:43:34;;;;;;;15.82;6.57;;;;;;;13.64;84.87;99121.34;5091808;28;20043;-74
2023/10/11 07:46:04;;;;;;;16.88;6.72;;;;;;;13.63;84.95;99101.25;5088625;28;20471;-74
2023/10/11 07:48:32;;;;;;;14.02;6.45;;;;;;;13.67;84.68;99101.00;5090598;28;20047;-75
2023/10/11 07:51:09;;;;;;;13.55;5.53;;;;;;;13.70;84.65;99106.06;5091236;28;20058;-74
2023/10/11 07:53:37;;;;;;;20.33;6.20;;;;;;;13.66;84.65;99104.56;5089391;28;20048;-74
2023/10/11 07:56:04;;;;;;;17.52;7.10;;;;;;;13.72;84.63;99106.84;5089181;28;20067;-75
2023/10/11 07:58:33;;;;;;;13.93;6.63;;;;;;;13.73;84.36;99105.06;5095145;28;20051;-74
2023/10/11 08:01:15;;;;;;;19.10;6.95;;;;;;;13.76;84.67;99089.13;5087771;28;20052;-75
2023/10/11 08:03:44;;;;;;;15.38;6.60;;;;;;;13.77;84.59;99082.09;5092594;28;20056;-75
2023/10/11 08:06:12;;;;;;;16.80;7.07;;;;;;;13.76;84.41;99072.53;5087089;28;20481;-75
2023/10/11 08:08:40;;;;;;;18.30;6.95;;;;;;;13.80;84.42;99071.41;5080064;28;20750;-74
2023/10/11 08:11:18;;;;;;;16.23;6.93;;;;;;;13.80;84.47;99066.16;5074502;28;20037;-76
2023/10/11 08:13:48;;;;;;;18.23;8.20;;;;;;;13.71;84.45;99054.44;5077108;28;20155;-74
2023/10/11 08:16:19;;;;;;;17.58;7.40;;;;;;;13.68;84.31;99042.34;5077460;28;20577;-75
2023/10/11 08:18:48;;;;;;;17.42;7.53;;;;;;;13.86;84.37;99064.03;5077661;28;20488;-75
2023/10/11 08:21:18;;;;;;;16.35;6.93;;;;;;;13.81;84.47;99049.50;5078561;28;20105;-76
2023/10/11 08:23:50;;;;;;;18.48;7.55;;;;;;;13.88;84.31;99063.94;5077931;28;20127;-75
2023/10/11 08:26:20;;;;;;;16.60;7.63;;;;;;;13.91;84.29;99064.59;5074656;28;20048;-76
2023/10/11 08:28:51;;;;;;;16.45;6.65;;;;;;;13.92;84.09;99047.09;5074376;28;20121;-75
2023/10/11 08:31:29;;;;;;;18.75;9.25;;;;;;;13.95;83.92;99049.53;5073989;28;20048;-76
2023/10/11 08:33:56;;;;;;;18.55;6.85;;;;;;;13.96;83.90;99051.22;5075342;28;20612;-76
2023/10/11 08:36:23;;;;;;;18.15;8.38;;;;;;;13.98;84.00;99035.38;5070897;28;20044;-75
2023/10/11 08:38:50;;;;;;;17.02;7.40;;;;;;;13.99;83.84;99051.03;5077742;28;20043;-76
2023/10/11 08:41:18;;;;;;;16.13;6.90;;;;;;;14.01;83.41;99059.66;5074901;28;20055;-76
2023/10/11 08:43:49;;;;;;;16.90;8.00;;;;;;;14.02;83.63;99042.97;5073613;28;20053;-76
2023/10/11 08:46:18;;;;;;;15.73;7.32;;;;;;;14.05;83.58;99041.94;5076220;28;20041;-75
2023/10/11 08:48:50;;;;;;;16.33;7.50;;;;;;;14.08;83.38;99042.59;5079135;28;20597;-78
2023/10/11 08:51:21;;;;;;;18.25;7.95;;;;;;;14.08;83.43;99053.09;5080169;28;20051;-78
2023/10/11 08:53:49;;;;;;;15.65;7.18;;;;;;;14.06;83.33;99036.59;5083316;28;20097;-77
2023/10/11 08:56:17;;;;;;;19.38;6.88;;;;;;;14.09;83.36;99039.03;5081092;28;20489;-79
2023/10/11 08:58:47;;;;;;;21.35;8.05;;;;;;;14.06;83.02;99025.22;5076224;28;20054;-79
2023/10/11 09:01:14;;;;;;;17.08;6.70;;;;;;;14.12;83.42;99030.13;5083188;28;20094;-79
2023/10/11 09:03:41;;;;;;;18.52;7.03;;;;;;;14.13;83.27;99019.53;5081890;28;20492;-76
2023/10/11 09:06:21;;;;;;;15.15;7.00;;;;;;;14.14;83.06;99008.09;5076464;28;20047;-77
2023/10/11 09:08:48;;;;;;;12.73;7.30;;;;;;;14.15;83.19;99017.66;5079951;28;20052;-78
2023/10/11 09:11:28;;;;;;;14.50;7.47;;;;;;;14.17;83.13;99010.53;5074602;28;20048;-78
2023/10/11 09:14:10;;;;;;;16.90;7.03;;;;;;;14.20;83.11;99006.00;5076108;28;20055;-74
2023/10/11 09:16:37;;;;;;;13.23;6.80;;;;;;;14.21;83.19;99010.34;5077337;28;20052;-77
2023/10/11 09:19:06;;;;;;;20.45;8.25;;;;;;;14.22;83.22;99012.03;5078236;28;20044;-79
2023/10/11 09:21:36;;;;;;;13.48;7.35;;;;;;;14.25;83.61;99007.41;5081588;28;20044;-79
2023/10/11 09:24:04;;;;;;;13.93;6.28;;;;;;;14.28;83.32;99009.00;5084886;28;20051;-80
2023/10/11 09:26:35;;;;;;;17.05;6.00;;;;;;;14.28;83.43;98996.72;5081712;28;20098;-80
2023/10/11 09:29:04;;;;;;;12.88;6.43;;;;;;;14.34;83.65;98990.25;5085129;28;20055;-82
2023/10/11 09:31:32;;;;;;;13.85;6.65;;;;;;;14.39;83.54;98993.44;5078810;28;20493;-79
2023/10/11 09:34:02;;;;;;;13.93;6.47;;;;;;;14.44;83.56;98986.13;5081963;28;20497;-78
2023/10/11 09:36:29;;;;;;;9.52;5.50;;;;;;;14.47;83.80;98977.19;5085396;28;20093;-77
2023/10/11 09:38:59;;;;;;;18.23;5.90;;;;;;;14.47;83.89;98964.06;5080750;28;20131;-79
2023/10/11 09:41:28;;;;;;;13.68;6.35;;;;;;;14.64;83.75;98963.84;5072606;28;20040;-78
2023/10/11 09:43:57;;;;;;;12.65;5.82;;;;;;;14.70;83.54;98962.63;5078360;28;20044;-76
2023/10/11 09:46:30;;;;;;;9.85;5.45;;;;;;;14.76;83.34;98965.69;5081350;28;20511;-76
2023/10/11 09:48:57;;;;;;;19.30;5.53;;;;;;;14.79;83.53;98959.38;5078925;28;20089;-76
2023/10/11 09:51:26;;;;;;;14.02;5.70;;;;;;;14.84;83.39;98954.69;5085861;28;20051;-79
2023/10/11 09:53:53;;;;;;;13.05;5.97;;;;;;;14.86;83.31;98950.19;5082157;28;20060;-78
2023/10/11 09:56:40;;;;;;;13.10;5.20;;;;;;;14.92;83.20;98948.94;5075468;28;20056;-81
2023/10/11 09:59:22;;;;;;;12.20;4.60;;;;;;;14.97;83.05;98947.69;5080566;28;20048;-78
2023/10/11 10:01:57;;;;;;;9.00;5.05;;;;;;;15.02;82.91;98950.84;5079454;28;20044;-78
2023/10/11 10:04:57;;;;;;;14.27;5.35;;;;;;;15.07;82.79;98943.50;5085749;28;20052;-82
2023/10/11 10:07:32;;;;;;;14.75;5.85;;;;;;;15.12;82.68;98945.00;5077391;28;20051;-81
2023/10/11 10:10:00;;;;;;;8.35;4.57;;;;;;;15.16;82.62;98935.94;5086495;28;20078;-82
2023/10/11 10:12:33;;;;;;;17.48;5.75;;;;;;;15.19;82.32;98933.94;5088443;28;20047;-81
2023/10/11 10:15:07;;;;;;;13.43;4.70;;;;;;;15.23;82.23;98932.81;5083569;28;20044;-81
2023/10/11 10:17:34;;;;;;;10.30;4.80;;;;;;;15.26;82.03;98922.06;5090635;28;20061;-82
2023/10/11 10:20:34;;;;;;;11.93;4.35;;;;;;;15.30;81.81;98922.72;5088360;28;20040;-82
2023/10/11 10:23:26;;;;;;;9.15;3.90;;;;;;;15.32;81.81;98915.56;5086343;28;20075;-83
2023/10/11 10:26:38;;;;;;;10.35;3.95;;;;;;;15.34;81.71;98908.41;5089419;28;20044;-82
2023/10/11 10:29:11;;;;;;;7.95;3.35;;;;;;;15.35;81.41;98912.72;5077457;28;20420;-73
2023/10/11 10:32:04;;;;;;;11.10;3.78;;;;;;;15.40;81.66;98910.63;5070934;28;20101;-73
2023/10/11 10:34:31;;;;;;;6.93;3.42;;;;;;;15.42;81.55;98900.81;5061590;28;24116;-73
2023/10/11 10:37:05;;;;;;;7.40;3.22;;;;;;;15.43;81.42;98894.63;5074139;28;20048;-75
2023/10/11 10:39:48;;;;;;;7.87;2.90;;;;;;;15.45;81.40;98884.84;5072161;28;20052;-73
2023/10/11 10:42:16;;;;;;;6.40;3.08;;;;;;;15.48;81.08;98884.63;5072958;28;20299;-73
2023/10/11 10:44:53;;;;;;;7.47;3.05;;;;;;;15.49;81.11;98883.69;5073594;28;20114;-74
2023/10/11 10:47:28;;;;;;;10.27;3.03;;;;;;;15.55;80.93;98871.06;5072080;28;20080;-74
2023/10/11 10:49:56;;;;;;;;;;;;;;;15.58;80.99;98874.31;5073603;28;20048;-73
2023/10/11 10:52:26;;;;;;;6.47;3.13;;;;;;;15.57;80.79;98864.75;5074201;28;19928;-75
2023/10/11 10:54:56;;;;;;;7.25;3.13;;;;;;;15.62;80.84;98864.41;5068959;28;20580;-74
2023/10/11 10:57:23;;;;;;;9.50;2.88;;;;;;;15.65;80.89;98858.91;5073925;28;20052;-76
2023/10/11 10:59:51;;;;;;;12.13;3.10;;;;;;;15.67;80.98;98859.66;5077227;28;20048;-75
2023/10/11 11:02:19;;;;;;;5.90;2.75;;;;;;;15.71;80.62;98859.38;5084297;28;20066;-78
2023/10/11 11:04:46;;;;;;;8.23;3.38;;;;;;;15.64;80.65;98837.03;5075758;28;20498;-79
2023/10/11 11:07:22;;;;;;;7.45;2.47;;;;;;;15.77;80.43;98858.09;5077494;28;20071;-74
2023/10/11 11:09:54;;;;;;;5.47;2.40;;;;;;;15.79;80.30;98850.91;5081936;28;20056;-78
2023/10/11 11:12:27;;;;;;;5.97;2.53;;;;;;;15.82;80.30;98844.59;5080621;28;20044;-78
2023/10/11 11:14:58;;;;;;;6.93;2.13;;;;;;;15.83;80.20;98839.25;5081484;28;20046;-78
2023/10/11 11:17:26;;;;;;;7.10;2.13;;;;;;;15.78;80.06;98815.03;5088809;28;20051;-75
2023/10/11 11:20:27;;;;;;;4.45;2.65;;;;;;;15.89;79.99;98817.75;5075442;28;20178;-79
2023/10/11 11:22:54;;;;;;;7.60;1.90;;;;;;;15.90;79.53;98827.31;5074493;28;20489;-76
2023/10/11 11:25:27;;;;;;;3.75;1.63;;;;;;;15.91;79.60;98818.47;5073354;28;20076;-75
2023/10/11 11:28:20;;;;;;;5.72;1.98;;;;;;;15.94;79.41;98815.63;5072780;28;20134;-77
2023/10/11 11:44:08;;;;;;;7.00;1.95;;;;;;;16.04;78.67;98799.16;5051283;28;20468;-79
2023/10/11 11:46:34;;;;;;;3.55;2.05;;;;;;;16.03;78.88;98790.41;5050511;28;20053;-78
2023/10/11 11:49:09;;;;;;;6.20;2.63;;;;;;;16.06;79.32;98778.81;5048689;28;20052;-76
2023/10/11 11:51:37;;;;;;;4.20;1.48;;;;;;;16.06;79.41;98768.28;5049487;28;20103;-75
2023/10/11 11:54:07;;;;;;;4.65;1.80;;;;;;;16.06;79.70;98763.84;5042701;28;20041;-75
2023/10/11 11:56:32;;;;;;;10.57;2.05;;;;;;;16.04;80.21;98749.94;5051808;28;20053;-75
2023/10/11 11:59:00;;;;;;;6.05;1.92;;;;;;;16.06;80.26;98752.47;5045691;28;20040;-76
2023/10/11 12:01:27;;;;;;;3.13;1.85;;;;;;;16.07;80.11;98751.53;5023935;28;20044;-76
2023/10/11 12:03:55;;;;;;;3.28;1.60;;;;;;;16.07;80.25;98755.00;5047031;28;20416;-78
2023/10/11 12:06:24;;;;;;;7.13;1.80;;;;;;;16.08;80.51;98750.56;5051626;28;20758;-78
2023/10/11 12:08:57;;;;;;;4.22;1.80;;;;;;;16.07;80.42;98743.63;5049412;28;20052;-80
2023/10/11 12:11:28;;;;;;;6.30;1.83;;;;;;;16.06;80.37;98741.94;5048427;28;20088;-79
2023/10/11 12:13:57;;;;;;;6.95;2.10;;;;;;;16.08;80.52;98740.88;5046953;28;20836;-78
2023/10/11 12:16:32;;;;;;;9.55;1.83;;;;;;;16.09;80.49;98744.34;5045720;28;20053;-78
2023/10/11 12:18:59;;;;;;;5.82;1.90;;;;;;;16.05;80.58;98743.75;5046084;28;20092;-79
2023/10/11 12:21:27;;;;;;;6.22;2.22;;;;;;;16.05;80.48;98741.13;5053277;28;20446;-78
2023/10/11 12:23:54;;;;;;;4.28;1.95;;;;;;;16.04;80.48;98743.84;5049036;28;20053;-78
2023/10/11 12:26:22;;;;;;;7.07;1.92;;;;;;;16.04;80.57;98754.38;5047723;28;20041;-84
2023/10/11 12:28:50;;;;;;;6.00;1.40;;;;;;;16.02;80.58;98769.44;5045302;28;20496;-76
2023/10/11 12:31:18;;;;;;;5.72;2.22;;;;;;;16.00;80.68;98768.75;5044536;28;20052;-77